Time,TemperatureF,DewpointF,PressureIn,WindDirection,WindDirectionDegrees,WindSpeedMPH,WindSpeedGustMPH,Humidity,HourlyPrecipIn,Conditions,Clouds,dailyrainin,SoftwareType,DateUTC
2013-05-28 00:03:00,57.2,53.4,29.96,South,180,1.8,1.8,87,0.00,,,0.00,WUHU216HW,2013-05-28 07:03:00,
2013-05-28 00:08:00,57.2,53.4,29.96,SW,225,3.1,3.1,87,0.00,,,0.00,WUHU216HW,2013-05-28 07:08:00,
2013-05-28 00:13:00,57.2,53.4,29.96,West,270,2.0,3.1,87,0.00,,,0.00,WUHU216HW,2013-05-28 07:13:00,
2013-05-28 00:18:00,57.2,53.7,29.97,WSW,248,1.1,2.9,88,0.00,,,0.00,WUHU216HW,2013-05-28 07:18:00,
2013-05-28 00:23:00,57.2,53.7,29.96,WSW,248,3.1,3.6,88,0.00,,,0.00,WUHU216HW,2013-05-28 07:23:00,
2013-05-28 00:28:00,57.1,53.6,29.96,NNW,338,1.8,4.5,88,0.00,,,0.00,WUHU216HW,2013-05-28 07:28:00,
2013-05-28 00:33:00,57.1,53.6,29.97,SW,225,1.6,4.5,88,0.00,,,0.00,WUHU216HW,2013-05-28 07:33:00,
2013-05-28 00:38:00,57.1,53.6,29.96,WSW,248,0.4,4.9,88,0.00,,,0.00,WUHU216HW,2013-05-28 07:38:00,
2013-05-28 00:43:00,57.1,53.6,29.96,WSW,248,0.7,4.9,88,0.00,,,0.00,WUHU216HW,2013-05-28 07:43:00,
2013-05-28 00:48:00,56.9,53.4,29.96,SW,225,0.2,1.6,88,0.00,,,0.00,WUHU216HW,2013-05-28 07:48:00,
2013-05-28 00:53:00,56.9,53.4,29.95,South,180,1.3,1.3,88,0.00,,,0.00,WUHU216HW,2013-05-28 07:53:00,
2013-05-28 00:58:00,56.9,53.6,29.95,South,180,5.6,5.6,89,0.00,,,0.00,WUHU216HW,2013-05-28 07:58:00,
2013-05-28 01:03:00,56.9,53.6,29.95,SSW,203,2.5,5.6,89,0.00,,,0.00,WUHU216HW,2013-05-28 08:03:00,
2013-05-28 01:08:00,56.9,53.6,29.95,WSW,248,0.2,4.5,89,0.00,,,0.00,WUHU216HW,2013-05-28 08:08:00,
2013-05-28 01:13:00,56.9,53.6,29.95,SW,225,2.2,2.5,89,0.00,,,0.00,WUHU216HW,2013-05-28 08:13:00,
2013-05-28 01:18:00,56.9,53.6,29.94,SSW,203,1.1,2.5,89,0.00,,,0.00,WUHU216HW,2013-05-28 08:18:00,
2013-05-28 01:23:00,56.9,53.6,29.94,WSW,248,1.1,1.1,89,0.00,,,0.00,WUHU216HW,2013-05-28 08:23:00,
2013-05-28 01:28:00,57.1,53.8,29.94,SSW,203,1.3,1.3,89,0.00,,,0.00,WUHU216HW,2013-05-28 08:28:00,
2013-05-28 01:33:00,57.1,53.6,29.93,SE,135,0.2,2.9,88,0.00,,,0.00,WUHU216HW,2013-05-28 08:33:00,
2013-05-28 01:38:00,57.1,53.6,29.93,SW,225,0.2,2.9,88,0.00,,,0.00,WUHU216HW,2013-05-28 08:38:00,
2013-05-28 01:43:00,57.1,53.6,29.94,ESE,113,0.0,1.8,88,0.00,,,0.00,WUHU216HW,2013-05-28 08:43:00,
2013-05-28 01:48:00,57.1,53.6,29.94,SW,225,0.0,1.8,88,0.00,,,0.00,WUHU216HW,2013-05-28 08:48:00,
2013-05-28 01:53:00,57.1,53.6,29.94,NW,315,3.6,3.6,88,0.00,,,0.00,WUHU216HW,2013-05-28 08:53:00,
2013-05-28 01:58:00,57.1,53.6,29.94,WSW,248,1.3,3.6,88,0.00,,,0.00,WUHU216HW,2013-05-28 08:58:00,
2013-05-28 02:03:00,57.1,53.6,29.94,WNW,293,1.3,3.4,88,0.00,,,0.00,WUHU216HW,2013-05-28 09:03:00,
2013-05-28 02:08:00,57.1,53.6,29.94,WSW,248,3.4,6.3,88,0.00,,,0.00,WUHU216HW,2013-05-28 09:08:00,
2013-05-28 02:13:00,57.2,53.7,29.94,SSW,203,3.4,6.3,88,0.00,,,0.00,WUHU216HW,2013-05-28 09:13:00,
2013-05-28 02:18:00,57.2,53.7,29.93,SW,225,1.6,3.4,88,0.00,,,0.00,WUHU216HW,2013-05-28 09:18:00,
2013-05-28 02:23:00,57.2,53.7,29.93,WSW,248,1.3,2.7,88,0.00,,,0.00,WUHU216HW,2013-05-28 09:23:00,
2013-05-28 02:28:00,57.2,53.7,29.93,WSW,248,3.4,3.4,88,0.00,,,0.00,WUHU216HW,2013-05-28 09:28:00,
2013-05-28 02:33:00,57.1,53.6,29.94,WNW,293,5.6,5.6,88,0.00,,,0.00,WUHU216HW,2013-05-28 09:33:00,
2013-05-28 02:38:00,57.1,53.6,29.94,West,270,3.1,5.6,88,0.00,,,0.00,WUHU216HW,2013-05-28 09:38:00,
2013-05-28 02:43:00,57.1,53.8,29.94,West,270,5.4,5.4,89,0.00,,,0.00,WUHU216HW,2013-05-28 09:43:00,
2013-05-28 02:48:00,57.1,53.8,29.94,West,270,5.4,5.4,89,0.00,,,0.00,WUHU216HW,2013-05-28 09:48:00,
2013-05-28 02:53:00,57.1,53.8,29.94,West,270,2.0,5.4,89,0.00,,,0.00,WUHU216HW,2013-05-28 09:53:00,
2013-05-28 02:58:00,57.1,53.8,29.93,WSW,248,2.7,3.8,89,0.00,,,0.00,WUHU216HW,2013-05-28 09:58:00,
2013-05-28 03:03:00,56.9,53.6,29.93,SW,225,2.5,3.8,89,0.00,,,0.00,WUHU216HW,2013-05-28 10:03:00,
2013-05-28 03:08:00,57.1,53.8,29.94,SSW,203,1.1,2.7,89,0.00,,,0.00,WUHU216HW,2013-05-28 10:08:00,
2013-05-28 03:13:00,56.9,53.6,29.93,SW,225,1.8,2.7,89,0.00,,,0.00,WUHU216HW,2013-05-28 10:13:00,
2013-05-28 03:18:00,56.9,53.6,29.93,SW,225,1.1,3.6,89,0.00,,,0.00,WUHU216HW,2013-05-28 10:18:00,
2013-05-28 03:23:00,56.9,53.6,29.93,South,180,1.3,3.6,89,0.00,,,0.00,WUHU216HW,2013-05-28 10:23:00,
2013-05-28 03:28:00,56.7,53.5,29.93,West,270,0.7,2.5,89,0.00,,,0.00,WUHU216HW,2013-05-28 10:28:00,
2013-05-28 03:33:00,56.7,53.5,29.93,WSW,248,0.0,2.5,89,0.00,,,0.00,WUHU216HW,2013-05-28 10:33:00,
2013-05-28 03:38:00,56.7,53.5,29.93,West,270,0.7,0.9,89,0.00,,,0.00,WUHU216HW,2013-05-28 10:38:00,
2013-05-28 03:43:00,56.7,53.5,29.92,NW,315,1.3,3.6,89,0.00,,,0.00,WUHU216HW,2013-05-28 10:43:00,
2013-05-28 03:48:00,56.7,53.5,29.92,WSW,248,2.0,3.6,89,0.00,,,0.00,WUHU216HW,2013-05-28 10:48:00,
2013-05-28 03:53:00,56.7,53.5,29.92,WNW,293,1.8,5.1,89,0.00,,,0.00,WUHU216HW,2013-05-28 10:53:00,
2013-05-28 03:58:00,56.7,53.5,29.92,West,270,4.3,5.1,89,0.00,,,0.00,WUHU216HW,2013-05-28 10:58:00,
2013-05-28 04:03:00,56.7,53.5,29.92,WNW,293,0.2,4.3,89,0.00,,,0.00,WUHU216HW,2013-05-28 11:03:00,
2013-05-28 04:08:00,56.7,53.5,29.92,North,0,1.8,2.5,89,0.00,,,0.00,WUHU216HW,2013-05-28 11:08:00,
2013-05-28 04:13:00,56.7,53.5,29.92,West,270,1.6,1.8,89,0.00,,,0.00,WUHU216HW,2013-05-28 11:13:00,
2013-05-28 04:18:00,56.7,53.5,29.92,West,270,1.8,2.9,89,0.00,,,0.00,WUHU216HW,2013-05-28 11:18:00,
2013-05-28 04:23:00,56.7,53.5,29.92,WSW,248,2.7,2.9,89,0.00,,,0.00,WUHU216HW,2013-05-28 11:23:00,
2013-05-28 04:28:00,56.7,53.5,29.92,WSW,248,2.5,2.7,89,0.00,,,0.00,WUHU216HW,2013-05-28 11:28:00,
2013-05-28 04:33:00,56.7,53.5,29.92,West,270,3.1,4.7,89,0.00,,,0.00,WUHU216HW,2013-05-28 11:33:00,
2013-05-28 04:38:00,56.7,53.5,29.92,West,270,5.4,6.9,89,0.00,,,0.00,WUHU216HW,2013-05-28 11:38:00,
2013-05-28 04:43:00,56.5,53.3,29.93,SW,225,0.9,6.9,89,0.00,,,0.00,WUHU216HW,2013-05-28 11:43:00,
2013-05-28 04:48:00,56.5,53.3,29.93,West,270,1.1,2.7,89,0.00,,,0.00,WUHU216HW,2013-05-28 11:48:00,
2013-05-28 04:53:00,56.5,53.3,29.93,WNW,293,0.4,2.5,89,0.00,,,0.00,WUHU216HW,2013-05-28 11:53:00,
2013-05-28 04:58:00,56.5,53.3,29.93,West,270,1.8,2.5,89,0.00,,,0.00,WUHU216HW,2013-05-28 11:58:00,
2013-05-28 05:03:00,56.5,53.3,29.93,West,270,0.7,1.8,89,0.00,,,0.00,WUHU216HW,2013-05-28 12:03:00,
2013-05-28 05:08:00,56.3,53.1,29.92,NW,315,0.0,1.6,89,0.00,,,0.00,WUHU216HW,2013-05-28 12:08:00,
2013-05-28 05:13:00,56.3,53.1,29.92,NNE,23,0.0,1.6,89,0.00,,,0.00,WUHU216HW,2013-05-28 12:13:00,
2013-05-28 05:18:00,56.3,53.1,29.92,NNE,23,0.4,1.1,89,0.00,,,0.00,WUHU216HW,2013-05-28 12:18:00,
2013-05-28 05:23:00,56.3,53.1,29.92,NE,45,0.0,1.1,89,0.00,,,0.00,WUHU216HW,2013-05-28 12:23:00,
2013-05-28 05:28:00,56.2,52.9,29.92,WSW,248,0.7,0.7,89,0.00,,,0.00,WUHU216HW,2013-05-28 12:28:00,
2013-05-28 05:33:00,56.2,52.9,29.92,NNE,23,0.7,0.9,89,0.00,,,0.00,WUHU216HW,2013-05-28 12:33:00,
2013-05-28 05:38:00,56.2,52.9,29.92,North,0,1.1,1.6,89,0.00,,,0.00,WUHU216HW,2013-05-28 12:38:00,
2013-05-28 05:43:00,56.2,52.9,29.92,NNE,23,1.1,1.6,89,0.00,,,0.00,WUHU216HW,2013-05-28 12:43:00,
2013-05-28 05:48:00,56.2,52.9,29.92,ENE,68,0.4,1.6,89,0.00,,,0.00,WUHU216HW,2013-05-28 12:48:00,
2013-05-28 05:53:00,56.0,52.7,29.91,East,90,1.3,1.3,89,0.00,,,0.00,WUHU216HW,2013-05-28 12:53:00,
2013-05-28 05:58:00,56.0,52.7,29.92,ENE,68,1.8,1.8,89,0.00,,,0.00,WUHU216HW,2013-05-28 12:58:00,
2013-05-28 06:03:00,56.0,52.7,29.92,East,90,0.4,1.8,89,0.00,,,0.00,WUHU216HW,2013-05-28 13:03:00,
2013-05-28 06:08:00,56.0,52.7,29.92,East,90,1.3,1.3,89,0.00,,,0.00,WUHU216HW,2013-05-28 13:08:00,
2013-05-28 06:13:00,55.8,52.6,29.92,North,0,1.8,1.8,89,0.00,,,0.00,WUHU216HW,2013-05-28 13:13:00,
2013-05-28 06:18:00,55.8,52.9,29.93,NNE,23,1.1,1.8,90,0.00,,,0.00,WUHU216HW,2013-05-28 13:18:00,
2013-05-28 06:23:00,56.0,53.1,29.92,NE,45,0.7,2.9,90,0.00,,,0.00,WUHU216HW,2013-05-28 13:23:00,
2013-05-28 06:28:00,56.0,53.1,29.92,NE,45,0.4,2.9,90,0.00,,,0.00,WUHU216HW,2013-05-28 13:28:00,
2013-05-28 06:33:00,56.2,53.3,29.92,North,0,0.0,1.3,90,0.00,,,0.00,WUHU216HW,2013-05-28 13:33:00,
2013-05-28 06:38:00,56.2,53.3,29.92,North,0,0.7,1.1,90,0.00,,,0.00,WUHU216HW,2013-05-28 13:38:00,
2013-05-28 06:43:00,56.3,53.5,29.92,ESE,113,0.4,0.7,90,0.00,,,0.00,WUHU216HW,2013-05-28 13:43:00,
2013-05-28 06:48:00,56.5,53.6,29.93,WNW,293,0.0,0.7,90,0.00,,,0.00,WUHU216HW,2013-05-28 13:48:00,
2013-05-28 06:53:00,56.5,53.6,29.93,North,0,0.0,0.4,90,0.00,,,0.00,WUHU216HW,2013-05-28 13:53:00,
2013-05-28 06:58:00,56.7,53.8,29.92,NE,45,0.2,0.7,90,0.00,,,0.00,WUHU216HW,2013-05-28 13:58:00,
2013-05-28 07:03:00,56.7,53.5,29.93,WSW,248,1.1,1.1,89,0.00,,,0.00,WUHU216HW,2013-05-28 14:03:00,
2013-05-28 07:08:00,56.9,53.6,29.92,WSW,248,0.9,1.8,89,0.00,,,0.00,WUHU216HW,2013-05-28 14:08:00,
2013-05-28 07:13:00,57.1,53.8,29.93,WSW,248,0.2,1.8,89,0.00,,,0.00,WUHU216HW,2013-05-28 14:13:00,
2013-05-28 07:18:00,57.1,53.8,29.93,West,270,1.1,1.1,89,0.00,,,0.00,WUHU216HW,2013-05-28 14:18:00,
2013-05-28 07:23:00,57.2,54.0,29.94,SSW,203,0.0,1.1,89,0.00,,,0.00,WUHU216HW,2013-05-28 14:23:00,
2013-05-28 07:28:00,57.4,54.2,29.94,SW,225,0.9,1.1,89,0.00,,,0.00,WUHU216HW,2013-05-28 14:28:00,
2013-05-28 07:33:00,57.6,54.4,29.94,West,270,1.1,1.3,89,0.00,,,0.00,WUHU216HW,2013-05-28 14:33:00,
2013-05-28 07:38:00,57.8,54.5,29.94,West,270,1.8,3.4,89,0.00,,,0.00,WUHU216HW,2013-05-28 14:38:00,
2013-05-28 07:43:00,58.0,54.7,29.94,WSW,248,1.6,4.0,89,0.00,,,0.00,WUHU216HW,2013-05-28 14:43:00,
2013-05-28 07:48:00,58.0,54.7,29.94,WNW,293,1.6,4.0,89,0.00,,,0.00,WUHU216HW,2013-05-28 14:48:00,
2013-05-28 07:53:00,58.3,55.4,29.94,West,270,0.0,2.5,90,0.00,,,0.00,WUHU216HW,2013-05-28 14:53:00,
2013-05-28 07:58:00,58.3,55.1,29.94,WNW,293,3.8,3.8,89,0.00,,,0.00,WUHU216HW,2013-05-28 14:58:00,
2013-05-28 08:03:00,58.7,55.4,29.94,WSW,248,2.2,3.8,89,0.00,,,0.00,WUHU216HW,2013-05-28 15:03:00,
2013-05-28 08:08:00,58.7,55.2,29.93,WSW,248,3.8,3.8,88,0.00,,,0.00,WUHU216HW,2013-05-28 15:08:00,
2013-05-28 08:13:00,59.0,55.5,29.94,WSW,248,3.4,4.0,88,0.00,,,0.00,WUHU216HW,2013-05-28 15:13:00,
2013-05-28 08:18:00,59.0,55.2,29.94,West,270,3.8,4.7,87,0.00,,,0.00,WUHU216HW,2013-05-28 15:18:00,
2013-05-28 08:23:00,59.0,55.2,29.95,West,270,4.0,4.7,87,0.00,,,0.00,WUHU216HW,2013-05-28 15:23:00,
2013-05-28 08:28:00,59.4,55.5,29.94,WSW,248,1.8,4.0,87,0.00,,,0.00,WUHU216HW,2013-05-28 15:28:00,
2013-05-28 08:33:00,59.4,55.3,29.94,WSW,248,4.3,4.3,86,0.00,,,0.00,WUHU216HW,2013-05-28 15:33:00,
2013-05-28 08:38:00,59.6,55.5,29.94,WSW,248,2.2,4.3,86,0.00,,,0.00,WUHU216HW,2013-05-28 15:38:00,
2013-05-28 08:43:00,59.9,55.4,29.93,WSW,248,2.5,3.4,85,0.00,,,0.00,WUHU216HW,2013-05-28 15:43:00,
2013-05-28 08:48:00,60.5,56.0,29.94,WSW,248,1.1,3.4,85,0.00,,,0.00,WUHU216HW,2013-05-28 15:48:00,
2013-05-28 08:53:00,61.2,56.1,29.93,WSW,248,1.8,3.4,83,0.00,,,0.00,WUHU216HW,2013-05-28 15:53:00,
2013-05-28 08:58:00,61.7,56.5,29.94,West,270,0.4,3.1,83,0.00,,,0.00,WUHU216HW,2013-05-28 15:58:00,
2013-05-28 09:03:00,62.6,57.1,29.94,West,270,1.1,2.9,82,0.00,,,0.00,WUHU216HW,2013-05-28 16:03:00,
2013-05-28 09:08:00,63.0,56.3,29.94,North,0,0.9,2.9,79,0.00,,,0.00,WUHU216HW,2013-05-28 16:08:00,
2013-05-28 09:13:00,63.0,56.0,29.95,WSW,248,4.0,5.1,78,0.00,,,0.00,WUHU216HW,2013-05-28 16:13:00,
2013-05-28 09:18:00,63.0,56.0,29.94,WNW,293,3.4,5.1,78,0.00,,,0.00,WUHU216HW,2013-05-28 16:18:00,
2013-05-28 09:23:00,63.0,56.0,29.95,West,270,4.7,5.1,78,0.00,,,0.00,WUHU216HW,2013-05-28 16:23:00,
2013-05-28 09:28:00,63.4,56.3,29.95,West,270,4.5,5.1,78,0.00,,,0.00,WUHU216HW,2013-05-28 16:28:00,
2013-05-28 09:33:00,64.1,57.1,29.94,West,270,2.2,4.7,78,0.00,,,0.00,WUHU216HW,2013-05-28 16:33:00,
2013-05-28 09:38:00,64.3,56.9,29.94,WSW,248,1.1,4.0,77,0.00,,,0.00,WUHU216HW,2013-05-28 16:38:00,
2013-05-28 09:43:00,64.4,57.1,29.94,West,270,2.2,2.9,77,0.00,,,0.00,WUHU216HW,2013-05-28 16:43:00,
2013-05-28 09:48:00,64.3,56.5,29.95,WSW,248,4.0,5.8,76,0.00,,,0.00,WUHU216HW,2013-05-28 16:48:00,
2013-05-28 09:53:00,63.9,56.2,29.94,SW,225,0.9,5.8,76,0.00,,,0.00,WUHU216HW,2013-05-28 16:53:00,
2013-05-28 09:58:00,63.9,56.5,29.95,WSW,248,3.8,7.6,77,0.00,,,0.00,WUHU216HW,2013-05-28 16:58:00,
2013-05-28 10:03:00,64.4,57.1,29.95,West,270,3.8,7.6,77,0.00,,,0.00,WUHU216HW,2013-05-28 17:03:00,
2013-05-28 10:08:00,64.4,56.7,29.95,WSW,248,3.8,6.5,76,0.00,,,0.00,WUHU216HW,2013-05-28 17:08:00,
2013-05-28 10:13:00,64.6,56.9,29.95,NW,315,1.1,5.4,76,0.00,,,0.00,WUHU216HW,2013-05-28 17:13:00,
2013-05-28 10:18:00,64.8,57.1,29.95,West,270,3.1,5.4,76,0.00,,,0.00,WUHU216HW,2013-05-28 17:18:00,
2013-05-28 10:23:00,65.2,57.1,29.95,SW,225,4.7,4.7,75,0.00,,,0.00,WUHU216HW,2013-05-28 17:23:00,
2013-05-28 10:28:00,64.8,56.7,29.95,WNW,293,2.2,4.7,75,0.00,,,0.00,WUHU216HW,2013-05-28 17:28:00,
2013-05-28 10:33:00,64.8,57.1,29.95,WSW,248,4.0,5.1,76,0.00,,,0.00,WUHU216HW,2013-05-28 17:33:00,
2013-05-28 10:38:00,65.5,57.0,29.95,WSW,248,5.4,5.4,74,0.00,,,0.00,WUHU216HW,2013-05-28 17:38:00,
2013-05-28 10:43:00,65.2,56.7,29.95,SW,225,3.1,5.4,74,0.00,,,0.00,WUHU216HW,2013-05-28 17:43:00,
2013-05-28 10:48:00,65.0,56.5,29.95,SW,225,2.9,5.4,74,0.00,,,0.00,WUHU216HW,2013-05-28 17:48:00,
2013-05-28 10:53:00,64.8,56.7,29.95,SSW,203,3.4,5.1,75,0.00,,,0.00,WUHU216HW,2013-05-28 17:53:00,
2013-05-28 10:58:00,64.6,56.5,29.96,WSW,248,5.4,6.0,75,0.00,,,0.00,WUHU216HW,2013-05-28 17:58:00,
2013-05-28 11:03:00,64.4,56.3,29.95,SSE,158,1.6,6.0,75,0.00,,,0.00,WUHU216HW,2013-05-28 18:03:00,
2013-05-28 11:08:00,64.4,56.3,29.95,WNW,293,3.6,4.7,75,0.00,,,0.00,WUHU216HW,2013-05-28 18:08:00,
2013-05-28 11:13:00,64.8,56.7,29.96,WNW,293,4.5,5.6,75,0.00,,,0.00,WUHU216HW,2013-05-28 18:13:00,
2013-05-28 11:18:00,65.2,56.7,29.96,WNW,293,4.7,5.6,74,0.00,,,0.00,WUHU216HW,2013-05-28 18:18:00,
2013-05-28 11:23:00,65.5,56.6,29.96,WNW,293,4.0,4.7,73,0.00,,,0.00,WUHU216HW,2013-05-28 18:23:00,
2013-05-28 11:28:00,66.1,57.5,29.95,WSW,248,4.7,4.7,74,0.00,,,0.00,WUHU216HW,2013-05-28 18:28:00,
2013-05-28 11:33:00,66.6,57.2,29.95,NW,315,4.5,4.7,72,0.00,,,0.00,WUHU216HW,2013-05-28 18:33:00,
2013-05-28 11:38:00,66.6,56.9,29.95,SW,225,1.8,4.5,71,0.00,,,0.00,WUHU216HW,2013-05-28 18:38:00,
2013-05-28 11:43:00,66.6,56.9,29.95,WNW,293,4.7,4.7,71,0.00,,,0.00,WUHU216HW,2013-05-28 18:43:00,
2013-05-28 11:48:00,67.3,57.2,29.95,West,270,2.2,4.9,70,0.00,,,0.00,WUHU216HW,2013-05-28 18:48:00,
2013-05-28 11:53:00,68.0,57.1,29.95,WSW,248,3.1,5.4,68,0.00,,,0.00,WUHU216HW,2013-05-28 18:53:00,
2013-05-28 11:58:00,68.4,57.9,29.95,WSW,248,5.4,6.9,69,0.00,,,0.00,WUHU216HW,2013-05-28 18:58:00,
2013-05-28 12:03:00,68.9,58.0,29.95,West,270,5.4,7.6,68,0.00,,,0.00,WUHU216HW,2013-05-28 19:03:00,
2013-05-28 12:08:00,69.1,56.8,29.95,WNW,293,4.9,7.6,65,0.00,,,0.00,WUHU216HW,2013-05-28 19:08:00,
2013-05-28 12:13:00,68.8,56.9,29.95,West,270,5.4,6.0,66,0.00,,,0.00,WUHU216HW,2013-05-28 19:13:00,
2013-05-28 12:18:00,68.8,57.3,29.95,WSW,248,5.1,6.0,67,0.00,,,0.00,WUHU216HW,2013-05-28 19:18:00,
2013-05-28 12:23:00,68.8,56.5,29.95,West,270,5.4,7.8,65,0.00,,,0.00,WUHU216HW,2013-05-28 19:23:00,
2013-05-28 12:28:00,69.1,56.4,29.95,SW,225,3.4,7.8,64,0.00,,,0.00,WUHU216HW,2013-05-28 19:28:00,
2013-05-28 12:33:00,69.5,57.2,29.95,WNW,293,5.8,7.8,65,0.00,,,0.00,WUHU216HW,2013-05-28 19:33:00,
2013-05-28 12:38:00,69.5,57.6,29.95,West,270,4.5,7.8,66,0.00,,,0.00,WUHU216HW,2013-05-28 19:38:00,
2013-05-28 12:43:00,69.8,56.7,29.95,West,270,2.7,6.7,63,0.00,,,0.00,WUHU216HW,2013-05-28 19:43:00,
2013-05-28 12:48:00,69.8,57.1,29.94,WNW,293,6.7,6.7,64,0.00,,,0.00,WUHU216HW,2013-05-28 19:48:00,
2013-05-28 12:53:00,70.2,57.4,29.95,West,270,4.7,7.8,64,0.00,,,0.00,WUHU216HW,2013-05-28 19:53:00,
2013-05-28 12:58:00,70.6,57.3,29.95,WSW,248,3.4,8.5,63,0.00,,,0.00,WUHU216HW,2013-05-28 19:58:00,
2013-05-28 13:03:00,70.6,57.0,29.94,WNW,293,4.0,8.5,62,0.00,,,0.00,WUHU216HW,2013-05-28 20:03:00,
2013-05-28 13:08:00,70.2,56.6,29.95,West,270,7.4,7.4,62,0.00,,,0.00,WUHU216HW,2013-05-28 20:08:00,
2013-05-28 13:13:00,70.0,56.9,29.94,West,270,4.3,7.4,63,0.00,,,0.00,WUHU216HW,2013-05-28 20:13:00,
2013-05-28 13:18:00,69.7,56.5,29.94,West,270,2.9,7.2,63,0.00,,,0.00,WUHU216HW,2013-05-28 20:18:00,
2013-05-28 13:23:00,69.8,56.7,29.94,SSW,203,6.3,7.6,63,0.00,,,0.00,WUHU216HW,2013-05-28 20:23:00,
2013-05-28 13:28:00,69.7,56.1,29.94,WSW,248,6.0,7.6,62,0.00,,,0.00,WUHU216HW,2013-05-28 20:28:00,
2013-05-28 13:33:00,69.8,56.7,29.94,West,270,1.8,6.0,63,0.00,,,0.00,WUHU216HW,2013-05-28 20:33:00,
2013-05-28 13:38:00,69.8,56.3,29.94,West,270,3.1,5.8,62,0.00,,,0.00,WUHU216HW,2013-05-28 20:38:00,
2013-05-28 13:43:00,69.8,55.9,29.94,WSW,248,7.8,8.9,61,0.00,,,0.00,WUHU216HW,2013-05-28 20:43:00,
2013-05-28 13:48:00,70.4,56.3,29.94,NW,315,2.5,8.9,61,0.00,,,0.00,WUHU216HW,2013-05-28 20:48:00,
2013-05-28 13:53:00,70.7,55.7,29.94,NW,315,5.8,7.4,59,0.00,,,0.00,WUHU216HW,2013-05-28 20:53:00,
2013-05-28 13:58:00,70.9,56.4,29.93,West,270,4.0,7.4,60,0.00,,,0.00,WUHU216HW,2013-05-28 20:58:00,
2013-05-28 14:03:00,71.3,56.7,29.94,SSW,203,3.6,6.9,60,0.00,,,0.00,WUHU216HW,2013-05-28 21:03:00,
2013-05-28 14:08:00,71.8,56.3,29.94,West,270,5.8,7.2,58,0.00,,,0.00,WUHU216HW,2013-05-28 21:08:00,
2013-05-28 14:13:00,72.0,56.3,29.94,West,270,8.5,8.5,58,0.00,,,0.00,WUHU216HW,2013-05-28 21:13:00,
2013-05-28 14:18:00,72.4,57.3,29.94,WSW,248,5.6,8.5,59,0.00,,,0.00,WUHU216HW,2013-05-28 21:18:00,
2013-05-28 14:23:00,72.4,55.2,29.93,West,270,5.6,8.5,55,0.00,,,0.00,WUHU216HW,2013-05-28 21:23:00,
2013-05-28 14:28:00,72.5,55.4,29.93,West,270,5.6,8.3,55,0.00,,,0.00,WUHU216HW,2013-05-28 21:28:00,
2013-05-28 14:33:00,72.5,56.3,29.93,West,270,4.3,8.3,57,0.00,,,0.00,WUHU216HW,2013-05-28 21:33:00,
2013-05-28 14:38:00,72.9,55.7,29.93,WSW,248,8.7,8.7,55,0.00,,,0.00,WUHU216HW,2013-05-28 21:38:00,
2013-05-28 14:43:00,73.1,55.8,29.93,SW,225,4.7,8.7,55,0.00,,,0.00,WUHU216HW,2013-05-28 21:43:00,
2013-05-28 14:48:00,73.1,55.8,29.93,West,270,3.6,5.4,55,0.00,,,0.00,WUHU216HW,2013-05-28 21:48:00,
2013-05-28 14:53:00,72.7,55.5,29.93,West,270,2.5,9.2,55,0.00,,,0.00,WUHU216HW,2013-05-28 21:53:00,
2013-05-28 14:58:00,72.5,55.4,29.93,West,270,7.8,9.2,55,0.00,,,0.00,WUHU216HW,2013-05-28 21:58:00,
2013-05-28 15:03:00,72.2,54.6,29.92,WNW,293,6.0,9.2,54,0.00,,,0.00,WUHU216HW,2013-05-28 22:03:00,
2013-05-28 15:08:00,72.0,55.9,29.93,WSW,248,2.9,7.4,57,0.00,,,0.00,WUHU216HW,2013-05-28 22:08:00,
2013-05-28 15:13:00,72.2,56.5,29.93,SW,225,6.5,7.4,58,0.00,,,0.00,WUHU216HW,2013-05-28 22:13:00,
2013-05-28 15:18:00,72.4,55.7,29.93,WSW,248,10.5,10.5,56,0.00,,,0.00,WUHU216HW,2013-05-28 22:18:00,
2013-05-28 15:23:00,72.4,55.7,29.93,West,270,9.2,10.5,56,0.00,,,0.00,WUHU216HW,2013-05-28 22:23:00,
2013-05-28 15:28:00,72.4,56.2,29.93,WSW,248,1.6,9.2,57,0.00,,,0.00,WUHU216HW,2013-05-28 22:28:00,
2013-05-28 15:33:00,72.7,56.5,29.93,WSW,248,8.1,9.2,57,0.00,,,0.00,WUHU216HW,2013-05-28 22:33:00,
2013-05-28 15:38:00,72.7,56.5,29.92,WNW,293,8.5,8.5,57,0.00,,,0.00,WUHU216HW,2013-05-28 22:38:00,
2013-05-28 15:43:00,72.5,55.9,29.93,West,270,9.2,9.2,56,0.00,,,0.00,WUHU216HW,2013-05-28 22:43:00,
2013-05-28 15:48:00,72.4,56.2,29.93,WSW,248,7.2,9.2,57,0.00,,,0.00,WUHU216HW,2013-05-28 22:48:00,
2013-05-28 15:53:00,72.2,56.5,29.92,West,270,5.4,12.3,58,0.00,,,0.00,WUHU216HW,2013-05-28 22:53:00,
2013-05-28 15:58:00,72.0,56.3,29.92,SW,225,5.4,12.3,58,0.00,,,0.00,WUHU216HW,2013-05-28 22:58:00,
2013-05-28 16:03:00,72.0,55.9,29.92,South,180,3.4,8.1,57,0.00,,,0.00,WUHU216HW,2013-05-28 23:03:00,
2013-05-28 16:08:00,71.6,55.5,29.92,West,270,5.1,8.1,57,0.00,,,0.00,WUHU216HW,2013-05-28 23:08:00,
2013-05-28 16:13:00,71.8,56.3,29.91,WSW,248,3.4,8.9,58,0.00,,,0.00,WUHU216HW,2013-05-28 23:13:00,
2013-05-28 16:18:00,72.2,56.1,29.91,WNW,293,10.1,10.1,57,0.00,,,0.00,WUHU216HW,2013-05-28 23:18:00,
2013-05-28 16:23:00,72.5,55.9,29.91,NW,315,6.5,10.1,56,0.00,,,0.00,WUHU216HW,2013-05-28 23:23:00,
2013-05-28 16:28:00,72.7,56.0,29.91,NW,315,6.5,8.9,56,0.00,,,0.00,WUHU216HW,2013-05-28 23:28:00,
2013-05-28 16:33:00,73.1,55.8,29.90,WSW,248,5.4,9.4,55,0.00,,,0.00,WUHU216HW,2013-05-28 23:33:00,
2013-05-28 16:38:00,73.3,55.5,29.90,West,270,1.8,9.4,54,0.00,,,0.00,WUHU216HW,2013-05-28 23:38:00,
2013-05-28 16:43:00,73.4,55.6,29.90,WNW,293,4.5,5.4,54,0.00,,,0.00,WUHU216HW,2013-05-28 23:43:00,
2013-05-28 16:48:00,73.6,56.3,29.90,WSW,248,6.5,6.5,55,0.00,,,0.00,WUHU216HW,2013-05-28 23:48:00,
2013-05-28 16:53:00,73.8,55.5,29.90,WSW,248,3.6,7.4,53,0.00,,,0.00,WUHU216HW,2013-05-28 23:53:00,
2013-05-28 16:58:00,73.6,55.4,29.90,SW,225,5.6,7.4,53,0.00,,,0.00,WUHU216HW,2013-05-28 23:58:00,
2013-05-28 17:03:00,73.8,55.5,29.90,WSW,248,7.8,7.8,53,0.00,,,0.00,WUHU216HW,2013-05-29 00:03:00,
2013-05-28 17:08:00,73.8,55.0,29.90,SSW,203,5.4,8.3,52,0.00,,,0.00,WUHU216HW,2013-05-29 00:08:00,
2013-05-28 17:13:00,73.3,54.5,29.90,West,270,8.1,8.3,52,0.00,,,0.00,WUHU216HW,2013-05-29 00:13:00,
2013-05-28 17:18:00,72.5,54.4,29.90,West,270,5.8,8.1,53,0.00,,,0.00,WUHU216HW,2013-05-29 00:18:00,
2013-05-28 17:23:00,72.2,54.6,29.90,West,270,6.7,7.8,54,0.00,,,0.00,WUHU216HW,2013-05-29 00:23:00,
2013-05-28 17:28:00,72.0,54.4,29.90,West,270,8.1,8.1,54,0.00,,,0.00,WUHU216HW,2013-05-29 00:28:00,
2013-05-28 17:33:00,71.6,54.0,29.90,SSW,203,5.8,8.1,54,0.00,,,0.00,WUHU216HW,2013-05-29 00:33:00,
2013-05-28 17:38:00,71.3,54.2,29.89,West,270,4.5,7.6,55,0.00,,,0.00,WUHU216HW,2013-05-29 00:38:00,
2013-05-28 17:43:00,71.1,54.1,29.89,WSW,248,5.6,7.6,55,0.00,,,0.00,WUHU216HW,2013-05-29 00:43:00,
2013-05-28 17:48:00,70.9,54.4,29.89,WSW,248,5.4,7.6,56,0.00,,,0.00,WUHU216HW,2013-05-29 00:48:00,
2013-05-28 17:53:00,70.9,54.4,29.89,WSW,248,2.2,6.3,56,0.00,,,0.00,WUHU216HW,2013-05-29 00:53:00,
2013-05-28 17:58:00,70.7,53.7,29.88,West,270,4.5,8.5,55,0.00,,,0.00,WUHU216HW,2013-05-29 00:58:00,
2013-05-28 18:03:00,70.2,53.3,29.88,SW,225,1.8,8.5,55,0.00,,,0.00,WUHU216HW,2013-05-29 01:03:00,
2013-05-28 18:08:00,69.8,52.9,29.88,WNW,293,3.1,6.9,55,0.00,,,0.00,WUHU216HW,2013-05-29 01:08:00,
2013-05-28 18:13:00,69.8,53.5,29.88,WSW,248,2.5,5.1,56,0.00,,,0.00,WUHU216HW,2013-05-29 01:13:00,
2013-05-28 18:18:00,69.7,53.3,29.88,WNW,293,3.4,5.4,56,0.00,,,0.00,WUHU216HW,2013-05-29 01:18:00,
2013-05-28 18:23:00,69.5,53.1,29.88,WNW,293,3.4,8.3,56,0.00,,,0.00,WUHU216HW,2013-05-29 01:23:00,
2013-05-28 18:28:00,69.1,53.2,29.88,West,270,4.5,8.3,57,0.00,,,0.00,WUHU216HW,2013-05-29 01:28:00,
2013-05-28 18:33:00,68.8,52.9,29.88,SW,225,4.0,6.7,57,0.00,,,0.00,WUHU216HW,2013-05-29 01:33:00,
2013-05-28 18:38:00,68.4,52.6,29.88,West,270,3.1,10.1,57,0.00,,,0.00,WUHU216HW,2013-05-29 01:38:00,
2013-05-28 18:43:00,68.0,52.7,29.88,West,270,7.8,10.1,58,0.00,,,0.00,WUHU216HW,2013-05-29 01:43:00,
2013-05-28 18:48:00,67.7,52.8,29.89,NW,315,4.0,9.2,59,0.00,,,0.00,WUHU216HW,2013-05-29 01:48:00,
2013-05-28 18:53:00,67.1,52.8,29.89,SSE,158,4.9,8.5,60,0.00,,,0.00,WUHU216HW,2013-05-29 01:53:00,
2013-05-28 18:58:00,66.6,52.7,29.89,NW,315,6.9,10.1,61,0.00,,,0.00,WUHU216HW,2013-05-29 01:58:00,
2013-05-28 19:03:00,66.1,52.7,29.89,West,270,4.9,10.1,62,0.00,,,0.00,WUHU216HW,2013-05-29 02:03:00,
2013-05-28 19:08:00,65.9,52.5,29.89,SW,225,3.8,7.8,62,0.00,,,0.00,WUHU216HW,2013-05-29 02:08:00,
2013-05-28 19:13:00,65.7,52.8,29.88,WNW,293,6.5,6.9,63,0.00,,,0.00,WUHU216HW,2013-05-29 02:13:00,
2013-05-28 19:18:00,65.3,52.8,29.88,SW,225,2.9,6.9,64,0.00,,,0.00,WUHU216HW,2013-05-29 02:18:00,
2013-05-28 19:23:00,65.0,52.5,29.89,West,270,2.2,5.4,64,0.00,,,0.00,WUHU216HW,2013-05-29 02:23:00,
2013-05-28 19:28:00,64.8,52.8,29.88,West,270,6.0,6.0,65,0.00,,,0.00,WUHU216HW,2013-05-29 02:28:00,
2013-05-28 19:33:00,64.4,52.4,29.89,WSW,248,3.1,6.0,65,0.00,,,0.00,WUHU216HW,2013-05-29 02:33:00,
2013-05-28 19:38:00,64.4,52.4,29.89,WNW,293,2.9,3.8,65,0.00,,,0.00,WUHU216HW,2013-05-29 02:38:00,
2013-05-28 19:43:00,64.1,52.5,29.90,West,270,4.9,6.9,66,0.00,,,0.00,WUHU216HW,2013-05-29 02:43:00,
2013-05-28 19:48:00,63.5,52.4,29.90,SW,225,4.7,9.2,67,0.00,,,0.00,WUHU216HW,2013-05-29 02:48:00,
2013-05-28 19:53:00,63.0,51.8,29.90,West,270,2.0,9.2,67,0.00,,,0.00,WUHU216HW,2013-05-29 02:53:00,
2013-05-28 19:58:00,62.6,51.9,29.90,WSW,248,2.9,7.4,68,0.00,,,0.00,WUHU216HW,2013-05-29 02:58:00,
2013-05-28 20:03:00,62.3,51.6,29.90,SW,225,2.5,4.5,68,0.00,,,0.00,WUHU216HW,2013-05-29 03:03:00,
2013-05-28 20:08:00,62.3,52.0,29.90,West,270,6.3,6.3,69,0.00,,,0.00,WUHU216HW,2013-05-29 03:08:00,
2013-05-28 20:13:00,62.1,51.8,29.90,WSW,248,2.2,6.3,69,0.00,,,0.00,WUHU216HW,2013-05-29 03:13:00,
2013-05-28 20:18:00,61.7,51.5,29.90,WNW,293,1.3,5.6,69,0.00,,,0.00,WUHU216HW,2013-05-29 03:18:00,
2013-05-28 20:23:00,61.6,51.4,29.90,WNW,293,0.0,5.6,69,0.00,,,0.00,WUHU216HW,2013-05-29 03:23:00,
2013-05-28 20:28:00,61.6,51.4,29.90,NNW,338,0.2,2.7,69,0.00,,,0.00,WUHU216HW,2013-05-29 03:28:00,
2013-05-28 20:33:00,61.6,51.4,29.90,WNW,293,3.4,3.4,69,0.00,,,0.00,WUHU216HW,2013-05-29 03:33:00,
2013-05-28 20:38:00,61.4,51.2,29.91,WNW,293,2.5,3.4,69,0.00,,,0.00,WUHU216HW,2013-05-29 03:38:00,
2013-05-28 20:43:00,61.2,51.5,29.91,WNW,293,1.1,3.1,70,0.00,,,0.00,WUHU216HW,2013-05-29 03:43:00,
2013-05-28 20:48:00,61.0,51.3,29.91,NW,315,0.4,3.1,70,0.00,,,0.00,WUHU216HW,2013-05-29 03:48:00,
2013-05-28 20:53:00,60.8,51.5,29.90,East,90,1.8,1.8,71,0.00,,,0.00,WUHU216HW,2013-05-29 03:53:00,
2013-05-28 20:58:00,60.8,51.5,29.91,NNE,23,0.7,2.5,71,0.00,,,0.00,WUHU216HW,2013-05-29 03:58:00,
2013-05-28 21:01:00,60.7,51.7,29.90,East,90,1.8,2.5,72,0.00,,,0.00,WUHU216HW,2013-05-29 04:01:00,
2013-05-28 21:06:00,60.7,51.3,29.90,SE,135,1.1,1.8,71,0.00,,,0.00,WUHU216HW,2013-05-29 04:06:00,
2013-05-28 21:11:00,60.3,50.9,29.91,ENE,68,2.0,2.2,71,0.00,,,0.00,WUHU216HW,2013-05-29 04:11:00,
2013-05-28 21:16:00,59.9,50.9,29.91,SSE,158,2.5,2.5,72,0.00,,,0.00,WUHU216HW,2013-05-29 04:16:00,
2013-05-28 21:21:00,59.8,50.8,29.91,East,90,0.7,2.5,72,0.00,,,0.00,WUHU216HW,2013-05-29 04:21:00,
2013-05-28 21:26:00,59.6,50.6,29.91,ESE,113,0.9,2.5,72,0.00,,,0.00,WUHU216HW,2013-05-29 04:26:00,
2013-05-28 21:31:00,59.4,50.8,29.91,South,180,1.1,2.5,73,0.00,,,0.00,WUHU216HW,2013-05-29 04:31:00,
2013-05-28 21:36:00,59.4,51.1,29.91,SW,225,0.9,3.4,74,0.00,,,0.00,WUHU216HW,2013-05-29 04:36:00,
2013-05-28 21:41:00,59.2,51.3,29.91,South,180,4.9,4.9,75,0.00,,,0.00,WUHU216HW,2013-05-29 04:41:00,
2013-05-28 21:46:00,59.0,51.5,29.91,SW,225,1.8,4.9,76,0.00,,,0.00,WUHU216HW,2013-05-29 04:46:00,
2013-05-28 21:51:00,58.9,51.3,29.91,WSW,248,0.2,3.1,76,0.00,,,0.00,WUHU216HW,2013-05-29 04:51:00,
2013-05-28 21:56:00,58.7,51.1,29.91,South,180,1.1,3.1,76,0.00,,,0.00,WUHU216HW,2013-05-29 04:56:00,
2013-05-28 22:01:00,58.7,51.1,29.91,SE,135,2.7,3.1,76,0.00,,,0.00,WUHU216HW,2013-05-29 05:01:00,
2013-05-28 22:06:00,58.7,51.1,29.90,SE,135,0.4,2.7,76,0.00,,,0.00,WUHU216HW,2013-05-29 05:06:00,
2013-05-28 22:11:00,58.5,51.3,29.90,SE,135,0.0,3.1,77,0.00,,,0.00,WUHU216HW,2013-05-29 05:11:00,
2013-05-28 22:16:00,58.3,51.1,29.90,SSE,158,0.4,3.1,77,0.00,,,0.00,WUHU216HW,2013-05-29 05:16:00,
2013-05-28 22:21:00,58.0,51.1,29.90,SE,135,0.9,1.8,78,0.00,,,0.00,WUHU216HW,2013-05-29 05:21:00,
2013-05-28 22:26:00,58.0,51.1,29.90,SSE,158,0.7,2.9,78,0.00,,,0.00,WUHU216HW,2013-05-29 05:26:00,
2013-05-28 22:31:00,57.8,51.3,29.90,ESE,113,1.8,2.9,79,0.00,,,0.00,WUHU216HW,2013-05-29 05:31:00,
2013-05-28 22:36:00,57.6,51.1,29.90,East,90,3.4,3.4,79,0.00,,,0.00,WUHU216HW,2013-05-29 05:36:00,
2013-05-28 22:41:00,57.4,50.9,29.90,NE,45,1.1,4.7,79,0.00,,,0.00,WUHU216HW,2013-05-29 05:41:00,
2013-05-28 22:46:00,57.2,51.1,29.90,ESE,113,2.2,4.7,80,0.00,,,0.00,WUHU216HW,2013-05-29 05:46:00,
2013-05-28 22:51:00,57.2,51.1,29.91,ESE,113,1.1,2.2,80,0.00,,,0.00,WUHU216HW,2013-05-29 05:51:00,
2013-05-28 22:56:00,57.2,51.1,29.90,ESE,113,0.4,2.2,80,0.00,,,0.00,WUHU216HW,2013-05-29 05:56:00,
2013-05-28 23:01:00,57.2,51.1,29.90,SSW,203,0.9,3.1,80,0.00,,,0.00,WUHU216HW,2013-05-29 06:01:00,
2013-05-28 23:06:00,57.1,51.3,29.91,South,180,1.3,3.1,81,0.00,,,0.00,WUHU216HW,2013-05-29 06:06:00,
2013-05-28 23:11:00,57.1,50.9,29.91,WSW,248,1.1,2.5,80,0.00,,,0.00,WUHU216HW,2013-05-29 06:11:00,
2013-05-28 23:16:00,57.1,50.9,29.92,WNW,293,1.8,2.0,80,0.00,,,0.00,WUHU216HW,2013-05-29 06:16:00,
2013-05-28 23:21:00,57.1,51.3,29.92,West,270,1.8,2.0,81,0.00,,,0.00,WUHU216HW,2013-05-29 06:21:00,
2013-05-28 23:26:00,57.1,51.3,29.93,WNW,293,3.4,4.0,81,0.00,,,0.00,WUHU216HW,2013-05-29 06:26:00,
2013-05-28 23:31:00,57.1,51.3,29.92,WNW,293,5.8,5.8,81,0.00,,,0.00,WUHU216HW,2013-05-29 06:31:00,
2013-05-28 23:36:00,57.1,51.3,29.92,South,180,0.7,5.8,81,0.00,,,0.00,WUHU216HW,2013-05-29 06:36:00,
2013-05-28 23:41:00,57.1,50.9,29.92,ESE,113,0.2,3.4,80,0.00,,,0.00,WUHU216HW,2013-05-29 06:41:00,
2013-05-28 23:46:00,57.1,50.9,29.91,SE,135,3.1,3.8,80,0.00,,,0.00,WUHU216HW,2013-05-29 06:46:00,
2013-05-28 23:51:00,56.9,50.8,29.92,NNE,23,0.2,3.8,80,0.00,,,0.00,WUHU216HW,2013-05-29 06:51:00,
2013-05-28 23:56:00,56.9,50.8,29.91,North,0,0.9,2.5,80,0.00,,,0.00,WUHU216HW,2013-05-29 06:56:00,